createdAt,value
2016-11-25T00:00:00.894Z,31.3
2016-11-25T00:01:00.905Z,31.3
2016-11-25T00:02:01.009Z,31.3
2016-11-25T00:03:01.128Z,31.3
2016-11-25T00:04:03.516Z,31.3
2016-11-25T00:05:03.449Z,31.3
2016-11-25T00:06:01.116Z,31.3
2016-11-25T00:07:01.188Z,31.3
2016-11-25T00:08:03.687Z,31.3
2016-11-25T00:09:01.355Z,31.3
2016-11-25T00:10:01.297Z,31.3
2016-11-25T00:11:01.450Z,31.3
2016-11-25T00:12:01.438Z,31.3
2016-11-25T00:13:03.907Z,31.3
2016-11-25T00:14:01.661Z,31.3
2016-11-25T00:15:04.141Z,31.3
2016-11-25T00:16:04.101Z,31.3
2016-11-25T00:17:01.834Z,31.3
2016-11-25T00:18:04.259Z,31.3
2016-11-25T00:19:02.005Z,31.3
2016-11-25T00:20:04.454Z,31.3
2016-11-25T00:21:02.084Z,31.3
2016-11-25T00:22:02.091Z,31.3
2016-11-25T00:23:04.646Z,31.3
2016-11-25T00:24:02.177Z,31.3
2016-11-25T00:25:04.735Z,31.3
2016-11-25T00:26:04.790Z,31.3
2016-11-25T00:27:02.348Z,31.3
2016-11-25T00:28:02.470Z,31.3
2016-11-25T00:29:02.358Z,31.3
2016-11-25T00:30:04.789Z,31.3
2016-11-25T00:31:04.943Z,31.3
2016-11-25T00:32:02.616Z,31.3
2016-11-25T00:33:04.929Z,31.3
2016-11-25T00:34:05.116Z,31.3
2016-11-25T00:35:02.667Z,31.3
2016-11-25T00:36:02.697Z,31.3
2016-11-25T00:37:02.817Z,31.3
2016-11-25T00:38:05.241Z,31.3
2016-11-25T00:39:02.790Z,31.3
2016-11-25T00:40:02.817Z,31.3
2016-11-25T00:41:05.243Z,31.3
2016-11-25T00:42:02.985Z,31.3
2016-11-25T00:43:03.004Z,31.3
2016-11-25T00:44:03.012Z,31.3
2016-11-25T00:45:02.917Z,31.3
2016-11-25T00:46:05.441Z,31.3
2016-11-25T00:47:02.991Z,31.3
2016-11-25T00:48:05.503Z,31.3
2016-11-25T00:49:03.202Z,31.3
2016-11-25T00:50:03.236Z,31.3
2016-11-25T00:51:05.726Z,31.3
2016-11-25T00:52:03.349Z,31.3
2016-11-25T00:53:03.445Z,31.3
2016-11-25T00:54:03.471Z,31.3
2016-11-25T00:55:06.025Z,31.3
2016-11-25T00:56:06.038Z,31.3
2016-11-25T00:57:03.545Z,31.3
2016-11-25T00:58:03.592Z,31.3
2016-11-25T00:59:03.652Z,31.3
2016-11-25T01:00:03.674Z,31.3
2016-11-25T01:01:06.191Z,31.3
2016-11-25T01:02:03.763Z,31.3
2016-11-25T01:03:03.797Z,31.3
2016-11-25T01:04:06.334Z,31.3
2016-11-25T01:05:03.913Z,31.3
2016-11-25T01:06:04.007Z,31.3
2016-11-25T01:07:06.438Z,31.3
2016-11-25T01:08:06.327Z,31.3
2016-11-25T01:09:03.986Z,31.3
2016-11-25T01:10:04.016Z,31.3
2016-11-25T01:11:04.137Z,31.3
2016-11-25T01:12:06.675Z,31.3
2016-11-25T01:13:04.126Z,31.3
2016-11-25T01:14:04.184Z,31.3
2016-11-25T01:15:04.311Z,31.3
2016-11-25T01:16:06.734Z,31.3
2016-11-25T01:17:04.298Z,31.3
2016-11-25T01:18:04.348Z,31.3
2016-11-25T01:19:06.837Z,31.3
2016-11-25T01:20:06.922Z,31.3
2016-11-25T01:21:07.057Z,31.3
2016-11-25T01:22:06.988Z,31.3
2016-11-25T01:23:04.627Z,31.3
2016-11-25T01:24:04.662Z,31.3
2016-11-25T01:25:04.720Z,31.3
2016-11-25T01:26:04.795Z,31.3
2016-11-25T01:27:04.813Z,31.3
2016-11-25T01:28:04.966Z,31.3
2016-11-25T01:29:07.440Z,31.3
2016-11-25T01:30:07.520Z,31.3
2016-11-25T01:31:07.390Z,31.3
2016-11-25T01:32:07.458Z,31.3
2016-11-25T01:33:07.539Z,31.3
2016-11-25T01:34:05.174Z,31.3
2016-11-25T01:35:05.205Z,31.3
2016-11-25T01:36:07.726Z,31.3
2016-11-25T01:37:07.687Z,31.3
2016-11-25T01:38:07.779Z,31.3
2016-11-25T01:39:05.445Z,31.3
2016-11-25T01:40:05.564Z,31.3
2016-11-25T01:41:08.072Z,31.3
2016-11-25T01:42:05.602Z,31.3
2016-11-25T01:43:08.086Z,31.3
2016-11-25T01:44:08.075Z,31.3
2016-11-25T01:45:08.154Z,31.3
2016-11-25T01:46:05.891Z,31.3
2016-11-25T01:47:05.985Z,31.3
2016-11-25T01:48:06.097Z,31.3
2016-11-25T01:49:08.429Z,31.4
2016-11-25T01:50:06.086Z,31.3
2016-11-25T01:51:08.612Z,31.3
2016-11-25T01:52:06.182Z,31.3
2016-11-25T01:53:06.282Z,31.3
2016-11-25T01:54:06.325Z,31.3
2016-11-25T01:55:06.366Z,31.3
2016-11-25T01:56:08.933Z,31.3
2016-11-25T01:57:08.875Z,31.3
2016-11-25T01:58:06.468Z,31.3
2016-11-25T01:59:09.054Z,31.3
2016-11-25T02:00:06.575Z,31.3
2016-11-25T02:01:06.695Z,31.4
2016-11-25T02:02:06.766Z,31.3
2016-11-25T02:03:06.859Z,31.3
2016-11-25T02:04:06.951Z,31.3
2016-11-25T02:05:07.061Z,31.3
2016-11-25T02:06:09.472Z,31.3
2016-11-25T02:07:07.103Z,31.3
2016-11-25T02:08:07.012Z,31.3
2016-11-25T02:09:07.181Z,31.3
2016-11-25T02:10:09.647Z,31.3
2016-11-25T02:11:09.673Z,31.3
2016-11-25T02:12:07.346Z,31.3
2016-11-25T02:13:09.814Z,31.3
2016-11-25T02:14:07.331Z,31.3
2016-11-25T02:15:09.879Z,31.3
2016-11-25T02:16:09.932Z,31.3
2016-11-25T02:17:07.630Z,31.3
2016-11-25T02:18:09.976Z,31.3
2016-11-25T02:19:10.004Z,31.3
2016-11-25T02:20:10.013Z,31.3
2016-11-25T02:21:10.081Z,31.3
2016-11-25T02:22:07.999Z,31.3
2016-11-25T02:23:10.474Z,31.3
2016-11-25T02:24:10.995Z,31.3
2016-11-25T02:25:08.162Z,31.3
2016-11-25T02:26:08.325Z,31.4
2016-11-25T02:27:10.565Z,31.4
2016-11-25T02:28:10.514Z,31.4
2016-11-25T02:29:10.553Z,31.4
2016-11-25T02:30:10.626Z,31.3
2016-11-25T02:31:10.777Z,31.3
2016-11-25T02:32:10.728Z,31.3
2016-11-25T02:33:09.702Z,31.3
2016-11-25T02:34:11.564Z,31.4
2016-11-25T02:35:08.339Z,31.3
2016-11-25T02:36:10.966Z,31.3
2016-11-25T02:37:08.592Z,31.3
2016-11-25T02:38:08.657Z,31.4
2016-11-25T02:39:11.040Z,31.3
2016-11-25T02:40:11.154Z,31.4
2016-11-25T02:41:11.187Z,31.4
2016-11-25T02:42:08.817Z,31.4
2016-11-25T02:43:11.214Z,31.4
2016-11-25T02:44:08.889Z,31.4
2016-11-25T02:45:08.919Z,31.4
2016-11-25T02:46:11.685Z,31.4
2016-11-25T02:47:11.442Z,31.4
2016-11-25T02:48:08.993Z,31.4
2016-11-25T02:49:09.166Z,31.3
2016-11-25T02:50:11.686Z,31.3
2016-11-25T02:51:11.757Z,31.3
2016-11-25T02:52:09.978Z,31.3
2016-11-25T02:53:11.850Z,31.3
2016-11-25T02:54:10.196Z,31.3
2016-11-25T02:55:09.503Z,31.3
2016-11-25T02:56:09.697Z,31.3
2016-11-25T02:57:09.725Z,31.3
2016-11-25T02:58:09.785Z,31.3
2016-11-25T02:59:09.654Z,31.3
2016-11-25T03:00:12.269Z,31.3
2016-11-25T03:01:12.386Z,31.3
2016-11-25T03:02:12.288Z,31.3
2016-11-25T03:03:10.164Z,31.3
2016-11-25T03:04:12.477Z,31.3
2016-11-25T03:05:10.339Z,31.3
2016-11-25T03:06:12.735Z,31.3
2016-11-25T03:07:13.063Z,31.3
2016-11-25T03:08:14.444Z,31.3
2016-11-25T03:09:10.347Z,31.3
2016-11-25T03:10:12.823Z,31.4
2016-11-25T03:11:10.497Z,31.3
2016-11-25T03:12:12.930Z,31.3
2016-11-25T03:13:10.550Z,31.3
2016-11-25T03:14:13.075Z,31.3
2016-11-25T03:15:10.636Z,31.3
2016-11-25T03:16:10.695Z,31.4
2016-11-25T03:17:10.751Z,31.3
2016-11-25T03:18:10.789Z,31.3
2016-11-25T03:19:10.859Z,31.3
2016-11-25T03:20:10.997Z,31.4
2016-11-25T03:21:13.435Z,31.4
2016-11-25T03:22:13.502Z,31.4
2016-11-25T03:23:13.435Z,31.3
2016-11-25T03:24:13.613Z,31.3
2016-11-25T03:25:11.147Z,31.3
2016-11-25T03:26:11.200Z,31.3
2016-11-25T03:27:11.420Z,31.4
2016-11-25T03:28:13.820Z,31.3
2016-11-25T03:29:11.561Z,31.3
2016-11-25T03:30:13.898Z,31.3
2016-11-25T03:31:13.983Z,31.3
2016-11-25T03:32:14.191Z,31.3
2016-11-25T03:33:14.283Z,31.3
2016-11-25T03:34:11.809Z,31.3
2016-11-25T03:35:14.269Z,31.3
2016-11-25T03:36:14.248Z,31.3
2016-11-25T03:37:11.933Z,31.3
2016-11-25T03:38:11.969Z,31.3
2016-11-25T03:39:14.386Z,31.3
2016-11-25T03:40:14.403Z,31.3
2016-11-25T03:41:12.102Z,31.3
2016-11-25T03:42:12.021Z,31.3
2016-11-25T03:43:14.676Z,31.3
2016-11-25T03:44:14.651Z,31.3
2016-11-25T03:45:14.762Z,31.3
2016-11-25T03:46:12.300Z,31.3
2016-11-25T03:47:12.343Z,31.3
2016-11-25T03:48:12.343Z,31.3
2016-11-25T03:49:14.786Z,31.3
2016-11-25T03:50:12.443Z,31.3
2016-11-25T03:51:12.455Z,31.3
2016-11-25T03:52:14.974Z,31.3
2016-11-25T03:53:14.947Z,31.3
2016-11-25T03:54:15.061Z,31.3
2016-11-25T03:55:15.129Z,31.3
2016-11-25T03:56:15.090Z,31.3
2016-11-25T03:57:15.154Z,31.3
2016-11-25T03:58:15.221Z,31.3
2016-11-25T03:59:12.889Z,31.3
2016-11-25T04:00:15.238Z,31.4
2016-11-25T04:01:12.874Z,31.4
2016-11-25T04:02:15.400Z,31.4
2016-11-25T04:03:15.467Z,31.4
2016-11-25T04:04:13.058Z,31.4
2016-11-25T04:05:13.060Z,31.3
2016-11-25T04:06:15.478Z,31.3
2016-11-25T04:07:15.697Z,31.4
2016-11-25T04:08:15.680Z,31.4
2016-11-25T04:09:13.347Z,31.3
2016-11-25T04:10:13.279Z,31.3
2016-11-25T04:11:15.754Z,31.4
2016-11-25T04:12:15.777Z,31.3
2016-11-25T04:13:13.541Z,31.3
2016-11-25T04:14:13.564Z,31.4
2016-11-25T04:15:15.978Z,31.4
2016-11-25T04:16:13.639Z,31.4
2016-11-25T04:17:15.970Z,31.4
2016-11-25T04:18:15.964Z,31.4
2016-11-25T04:19:16.013Z,31.3
2016-11-25T04:20:15.981Z,31.3
2016-11-25T04:21:13.671Z,31.4
2016-11-25T04:22:16.159Z,31.4
2016-11-25T04:23:13.902Z,31.3
2016-11-25T04:24:16.333Z,31.3
2016-11-25T04:25:16.333Z,31.3
2016-11-25T04:26:16.488Z,31.3
2016-11-25T04:27:14.094Z,31.3
2016-11-25T04:28:16.635Z,31.3
2016-11-25T04:29:14.264Z,31.3
2016-11-25T04:30:14.299Z,31.4
2016-11-25T04:31:16.875Z,31.4
2016-11-25T04:32:14.409Z,31.4
2016-11-25T04:33:16.928Z,31.4
2016-11-25T04:34:14.488Z,31.4
2016-11-25T04:35:16.945Z,31.4
2016-11-25T04:36:17.096Z,31.4
2016-11-25T04:37:17.143Z,31.3
2016-11-25T04:38:14.764Z,31.3
2016-11-25T04:39:17.126Z,31.3
2016-11-25T04:40:17.280Z,31.3
2016-11-25T04:41:14.896Z,31.3
2016-11-25T04:42:17.414Z,31.4
2016-11-25T04:43:17.405Z,31.3
2016-11-25T04:44:15.027Z,31.3
2016-11-25T04:45:17.575Z,31.4
2016-11-25T04:46:15.174Z,31.4
2016-11-25T04:47:15.170Z,31.3
2016-11-25T04:48:17.751Z,31.4
2016-11-25T04:49:17.791Z,31.4
2016-11-25T04:50:17.804Z,31.4
2016-11-25T04:51:15.391Z,31.4
2016-11-25T04:52:15.426Z,31.4
2016-11-25T04:53:15.542Z,31.4
2016-11-25T04:54:15.660Z,31.4
2016-11-25T04:55:18.010Z,31.4
2016-11-25T04:56:15.677Z,31.4
2016-11-25T04:57:15.812Z,31.4
2016-11-25T04:58:15.758Z,31.4
2016-11-25T04:59:15.870Z,31.4
2016-11-25T05:00:18.404Z,31.4
2016-11-25T05:01:15.911Z,31.4
2016-11-25T05:02:18.489Z,31.4
2016-11-25T05:03:18.419Z,31.4
2016-11-25T05:04:18.523Z,31.4
2016-11-25T05:05:18.560Z,31.4
2016-11-25T05:06:18.744Z,31.4
2016-11-25T05:07:16.297Z,31.4
2016-11-25T05:08:18.830Z,31.4
2016-11-25T05:09:18.891Z,31.4
2016-11-25T05:10:16.503Z,31.4
2016-11-25T05:11:18.871Z,31.4
2016-11-25T05:12:18.996Z,31.4
2016-11-25T05:13:16.578Z,31.4
2016-11-25T05:14:19.036Z,31.4
2016-11-25T05:15:19.163Z,31.4
2016-11-25T05:16:16.853Z,31.4
2016-11-25T05:17:19.362Z,31.4
2016-11-25T05:18:17.040Z,31.4
2016-11-25T05:19:17.008Z,31.4
2016-11-25T05:20:16.991Z,31.4
2016-11-25T05:21:19.465Z,31.5
2016-11-25T05:22:19.572Z,31.4
2016-11-25T05:23:19.586Z,31.4
2016-11-25T05:24:17.220Z,31.4
2016-11-25T05:25:17.120Z,31.4
2016-11-25T05:26:17.157Z,31.4
2016-11-25T05:27:17.266Z,31.4
2016-11-25T05:28:19.623Z,31.4
2016-11-25T05:29:17.374Z,31.4
2016-11-25T05:30:17.439Z,31.4
2016-11-25T05:31:19.899Z,31.4
2016-11-25T05:32:19.880Z,31.4
2016-11-25T05:33:19.929Z,31.4
2016-11-25T05:34:19.975Z,31.4
2016-11-25T05:35:17.677Z,31.4
2016-11-25T05:36:20.176Z,31.4
2016-11-25T05:37:17.730Z,31.4
2016-11-25T05:38:20.202Z,31.5
2016-11-25T05:39:17.868Z,31.5
2016-11-25T05:40:20.224Z,31.6
2016-11-25T05:41:20.396Z,31.6
2016-11-25T05:42:17.938Z,31.6
2016-11-25T05:43:17.961Z,31.7
2016-11-25T05:44:20.398Z,31.7
2016-11-25T05:45:20.469Z,31.7
2016-11-25T05:46:20.608Z,31.7
2016-11-25T05:47:18.208Z,31.7
2016-11-25T05:48:20.685Z,31.8
2016-11-25T05:49:20.790Z,31.8
2016-11-25T05:50:18.303Z,31.9
2016-11-25T05:51:18.461Z,32
2016-11-25T05:52:18.445Z,32.1
2016-11-25T05:53:20.894Z,32.2
2016-11-25T05:54:20.984Z,32.3
2016-11-25T05:55:20.985Z,32.4
2016-11-25T05:56:21.092Z,32.5
2016-11-25T05:57:18.703Z,32.6
2016-11-25T05:58:18.647Z,32.7
2016-11-25T05:59:21.163Z,32.7
2016-11-25T06:00:21.200Z,32.8
2016-11-25T06:01:18.911Z,32.9
2016-11-25T06:02:19.448Z,33
2016-11-25T06:03:21.327Z,33
2016-11-25T06:04:18.930Z,33.1
2016-11-25T06:05:21.434Z,33.1
2016-11-25T06:06:18.934Z,33.1
2016-11-25T06:07:18.993Z,33.2
2016-11-25T06:08:19.087Z,33.2
2016-11-25T06:09:19.157Z,33.2
2016-11-25T06:10:21.577Z,33.2
2016-11-25T06:11:19.194Z,33.2
2016-11-25T06:12:21.494Z,33.2
2016-11-25T06:13:21.536Z,33.2
2016-11-25T06:14:19.170Z,33.2
2016-11-25T06:15:19.173Z,33.2
2016-11-25T06:16:19.357Z,33.2
2016-11-25T06:17:19.479Z,33.2
2016-11-25T06:18:19.432Z,33.2
2016-11-25T06:19:21.749Z,33.2
2016-11-25T06:20:19.427Z,33.2
2016-11-25T06:21:19.464Z,33.2
2016-11-25T06:22:19.583Z,33.2
2016-11-25T06:23:19.708Z,33.2
2016-11-25T06:24:19.604Z,33.2
2016-11-25T06:25:19.772Z,33.2
2016-11-25T06:26:22.083Z,33.2
2016-11-25T06:27:19.820Z,33.2
2016-11-25T06:28:19.792Z,33.3
2016-11-25T06:29:19.859Z,33.2
2016-11-25T06:30:22.346Z,33.2
2016-11-25T06:31:20.050Z,33.1
2016-11-25T06:32:22.362Z,33.1
2016-11-25T06:33:19.966Z,33.1
2016-11-25T06:34:20.096Z,33.1
2016-11-25T06:35:20.087Z,33.1
2016-11-25T06:36:20.104Z,33.1
2016-11-25T06:37:20.257Z,33.1
2016-11-25T06:38:22.686Z,33.1
2016-11-25T06:39:22.710Z,33
2016-11-25T06:40:20.252Z,33
2016-11-25T06:41:20.470Z,33
2016-11-25T06:42:20.424Z,32.9
2016-11-25T06:43:22.918Z,32.9
2016-11-25T06:44:22.931Z,32.9
2016-11-25T06:45:22.977Z,32.9
2016-11-25T06:46:23.073Z,32.9
2016-11-25T06:47:23.112Z,32.8
2016-11-25T06:48:23.111Z,32.9
2016-11-25T06:49:23.124Z,32.8
2016-11-25T06:50:23.281Z,32.9
2016-11-25T06:51:20.939Z,32.9
2016-11-25T06:52:21.017Z,32.9
2016-11-25T06:53:20.932Z,32.8
2016-11-25T06:54:23.477Z,32.8
2016-11-25T06:55:23.953Z,32.7
2016-11-25T06:56:23.516Z,32.6
2016-11-25T06:57:21.185Z,32.6
2016-11-25T06:58:23.589Z,32.6
2016-11-25T06:59:23.695Z,32.5
2016-11-25T07:00:21.185Z,32.6
2016-11-25T07:01:23.679Z,32.5
2016-11-25T07:02:23.760Z,32.5
2016-11-25T07:03:24.830Z,32.5
2016-11-25T07:04:23.845Z,32.5
2016-11-25T07:05:21.508Z,32.5
2016-11-25T07:06:21.559Z,32.4
2016-11-25T07:07:23.991Z,32.4
2016-11-25T07:08:24.018Z,32.4
2016-11-25T07:09:21.827Z,32.4
2016-11-25T07:10:21.895Z,32.4
2016-11-25T07:11:21.951Z,32.4
2016-11-25T07:12:25.113Z,32.3
2016-11-25T07:13:24.458Z,32.3
2016-11-25T07:14:24.461Z,32.3
2016-11-25T07:15:24.489Z,32.3
2016-11-25T07:16:25.555Z,32.3
2016-11-25T07:17:22.278Z,32.3
2016-11-25T07:18:25.413Z,32.3
2016-11-25T07:19:24.686Z,32.2
2016-11-25T07:20:22.298Z,32.2
2016-11-25T07:21:25.536Z,32.2
2016-11-25T07:22:22.446Z,32.1
2016-11-25T07:23:24.955Z,32.1
2016-11-25T07:24:25.112Z,32.1
2016-11-25T07:25:25.207Z,32.1
2016-11-25T07:26:24.200Z,32
2016-11-25T07:27:26.107Z,32
2016-11-25T07:28:25.332Z,31.9
2016-11-25T07:29:22.873Z,31.9
2016-11-25T07:30:25.361Z,31.8
2016-11-25T07:31:23.684Z,31.8
2016-11-25T07:32:25.442Z,31.8
2016-11-25T07:33:26.121Z,31.7
2016-11-25T07:34:23.237Z,31.7
2016-11-25T07:35:23.805Z,31.7
2016-11-25T07:36:23.151Z,31.6
2016-11-25T07:37:25.639Z,31.6
2016-11-25T07:38:26.851Z,31.6
2016-11-25T07:39:23.360Z,31.5
2016-11-25T07:40:25.709Z,31.5
2016-11-25T07:41:23.364Z,31.4
2016-11-25T07:42:25.826Z,31.4
2016-11-25T07:43:25.928Z,31.4
2016-11-25T07:44:26.848Z,31.4
2016-11-25T07:45:23.510Z,31.3
2016-11-25T07:46:23.511Z,31.3
2016-11-25T07:47:23.602Z,31.2
2016-11-25T07:48:25.118Z,31.2
2016-11-25T07:49:23.660Z,31.2
2016-11-25T07:50:23.755Z,31.1
2016-11-25T07:51:23.890Z,31.1
2016-11-25T07:52:23.895Z,31.1
2016-11-25T07:53:26.395Z,31.1
2016-11-25T07:54:24.108Z,31.1
2016-11-25T07:55:24.082Z,31.1
2016-11-25T07:56:27.206Z,31
2016-11-25T07:57:26.685Z,31
2016-11-25T07:58:24.221Z,31
2016-11-25T07:59:24.407Z,31
2016-11-25T08:00:26.884Z,31
2016-11-25T08:01:26.996Z,31
2016-11-25T08:02:27.596Z,30.9
2016-11-25T08:03:24.508Z,30.9
2016-11-25T08:04:24.687Z,30.9
2016-11-25T08:05:27.092Z,30.9
2016-11-25T08:06:24.833Z,30.8
2016-11-25T08:07:24.843Z,30.8
2016-11-25T08:08:27.752Z,30.7
2016-11-25T08:09:27.266Z,30.6
2016-11-25T08:10:25.945Z,30.6
2016-11-25T08:11:27.307Z,30.5
2016-11-25T08:12:27.515Z,30.4
2016-11-25T08:13:24.982Z,30.3
2016-11-25T08:14:25.142Z,30.2
2016-11-25T08:15:28.129Z,30.2
2016-11-25T08:16:27.515Z,30.1
2016-11-25T08:17:25.096Z,30.1
2016-11-25T08:18:25.189Z,30.1
2016-11-25T08:19:25.827Z,30.1
2016-11-25T08:20:25.299Z,30.1
2016-11-25T08:21:27.732Z,30.1
2016-11-25T08:22:25.399Z,30.1
2016-11-25T08:23:25.401Z,30.1
2016-11-25T08:24:25.387Z,30.1
2016-11-25T08:25:27.965Z,30.1
2016-11-25T08:26:27.874Z,30.1
2016-11-25T08:27:25.567Z,30.1
2016-11-25T08:28:25.699Z,30.1
2016-11-25T08:29:28.111Z,30
2016-11-25T08:30:25.715Z,29.9
2016-11-25T08:31:28.217Z,29.8
2016-11-25T08:32:25.809Z,29.8
2016-11-25T08:33:28.360Z,29.7
2016-11-25T08:34:28.385Z,29.6
2016-11-25T08:35:26.099Z,29.5
2016-11-25T08:36:26.047Z,29.4
2016-11-25T08:37:26.066Z,29.3
2016-11-25T08:38:28.641Z,29.2
2016-11-25T08:39:28.564Z,29.1
2016-11-25T08:40:28.603Z,29
2016-11-25T08:41:26.181Z,29
2016-11-25T08:42:26.376Z,28.9
2016-11-25T08:43:28.773Z,28.9
2016-11-25T08:44:28.839Z,28.8
2016-11-25T08:45:28.923Z,28.9
2016-11-25T08:46:28.960Z,28.8
2016-11-25T08:47:28.979Z,28.8
2016-11-25T08:48:27.152Z,28.8
2016-11-25T08:49:26.721Z,28.8
2016-11-25T08:50:26.686Z,28.8
2016-11-25T08:51:26.736Z,28.8
2016-11-25T08:52:29.175Z,28.8
2016-11-25T08:53:29.306Z,28.8
2016-11-25T08:54:29.367Z,28.8
2016-11-25T08:55:29.972Z,28.8
2016-11-25T08:56:27.022Z,28.8
2016-11-25T08:57:29.562Z,28.9
2016-11-25T08:58:27.170Z,28.9
2016-11-25T08:59:29.637Z,28.9
2016-11-25T09:00:27.100Z,28.9
2016-11-25T09:01:27.302Z,28.9
2016-11-25T09:02:29.633Z,28.9
2016-11-25T09:03:30.866Z,28.9
2016-11-25T09:04:29.808Z,29
2016-11-25T09:05:27.332Z,29
2016-11-25T09:06:29.780Z,29
2016-11-25T09:07:29.911Z,29.1
2016-11-25T09:08:29.902Z,29.1
2016-11-25T09:09:29.988Z,29.2
2016-11-25T09:10:27.703Z,29.2
2016-11-25T09:11:28.286Z,29.2
2016-11-25T09:12:30.084Z,29.3
2016-11-25T09:13:29.602Z,29.3
2016-11-25T09:14:27.821Z,29.4
2016-11-25T09:15:29.746Z,29.4
2016-11-25T09:16:30.792Z,29.5
2016-11-25T09:17:30.880Z,29.5
2016-11-25T09:18:31.006Z,29.5
2016-11-25T09:19:28.695Z,29.6
2016-11-25T09:20:27.841Z,29.6
2016-11-25T09:21:30.368Z,29.7
2016-11-25T09:22:30.494Z,29.7
2016-11-25T09:23:28.096Z,29.7
2016-11-25T09:24:28.095Z,29.8
2016-11-25T09:25:28.991Z,29.8
2016-11-25T09:26:28.242Z,29.8
2016-11-25T09:27:28.375Z,29.9
2016-11-25T09:28:28.440Z,29.9
2016-11-25T09:29:28.516Z,29.9
2016-11-25T09:30:29.199Z,29.9
2016-11-25T09:31:29.313Z,30
2016-11-25T09:32:31.016Z,30
2016-11-25T09:33:31.413Z,30.1
2016-11-25T09:34:34.552Z,30.1
2016-11-25T09:35:30.018Z,30.1
2016-11-25T09:36:31.690Z,30.2
2016-11-25T09:37:31.220Z,30.2
2016-11-25T09:38:29.383Z,30.2
2016-11-25T09:39:28.822Z,30.2
2016-11-25T09:40:31.350Z,30.3
2016-11-25T09:41:31.556Z,30.3
2016-11-25T09:42:31.460Z,30.3
2016-11-25T09:43:30.433Z,30.3
2016-11-25T09:44:29.877Z,30.4
2016-11-25T09:45:29.811Z,30.4
2016-11-25T09:46:29.847Z,30.4
2016-11-25T09:47:29.285Z,30.4
2016-11-25T09:48:29.349Z,30.5
2016-11-25T09:49:29.384Z,30.5
2016-11-25T09:50:31.751Z,30.5
2016-11-25T09:51:29.382Z,30.5
2016-11-25T09:52:32.001Z,30.5
2016-11-25T09:53:32.047Z,30.5
2016-11-25T09:54:32.693Z,30.5
2016-11-25T09:55:30.444Z,30.5
2016-11-25T09:56:31.913Z,30.6
2016-11-25T09:57:34.176Z,30.6
2016-11-25T09:58:32.526Z,30.6
2016-11-25T09:59:31.204Z,30.6
2016-11-25T10:00:30.014Z,30.6
2016-11-25T10:01:30.034Z,30.7
2016-11-25T10:02:32.522Z,30.7
2016-11-25T10:03:30.029Z,30.7
2016-11-25T10:04:30.026Z,30.7
2016-11-25T10:05:32.578Z,30.7
2016-11-25T10:06:35.911Z,30.7
2016-11-25T10:07:32.522Z,30.7
2016-11-25T10:08:35.837Z,30.8
2016-11-25T10:09:34.429Z,30.8
2016-11-25T10:10:32.541Z,30.9
2016-11-25T10:11:35.468Z,30.9
2016-11-25T10:12:36.740Z,31
2016-11-25T10:13:32.009Z,31.1
2016-11-25T10:14:30.611Z,31.1
2016-11-25T10:15:33.554Z,31
2016-11-25T10:16:30.698Z,31.1
2016-11-25T10:17:31.923Z,31.1
2016-11-25T10:18:30.719Z,31.1
2016-11-25T10:19:33.901Z,31.1
2016-11-25T10:20:33.220Z,31.1
2016-11-25T10:21:34.467Z,31.1
2016-11-25T10:22:31.497Z,31.1
2016-11-25T10:23:30.987Z,31
2016-11-25T10:24:31.129Z,31
2016-11-25T10:25:33.628Z,31
2016-11-25T10:26:31.318Z,31
2016-11-25T10:27:31.969Z,31
2016-11-25T10:28:34.342Z,31
2016-11-25T10:29:31.421Z,31
2016-11-25T10:30:34.984Z,30.9
2016-11-25T10:31:33.893Z,30.9
2016-11-25T10:32:31.543Z,30.9
2016-11-25T10:33:32.170Z,30.9
2016-11-25T10:34:33.940Z,30.9
2016-11-25T10:35:31.600Z,30.9
2016-11-25T10:36:31.688Z,30.9
2016-11-25T10:37:34.107Z,30.9
2016-11-25T10:38:31.818Z,30.9
2016-11-25T10:39:34.258Z,30.9
2016-11-25T10:40:34.314Z,30.9
2016-11-25T10:41:35.563Z,30.9
2016-11-25T10:42:34.371Z,30.9
2016-11-25T10:43:34.474Z,30.9
2016-11-25T10:44:33.246Z,31
2016-11-25T10:45:32.240Z,30.9
2016-11-25T10:46:32.296Z,30.9
2016-11-25T10:47:34.716Z,30.9
2016-11-25T10:48:32.344Z,30.9
2016-11-25T10:49:32.936Z,30.9
2016-11-25T10:50:34.817Z,30.9
2016-11-25T10:51:36.089Z,30.8
2016-11-25T10:52:32.580Z,30.7
2016-11-25T10:53:35.597Z,30.6
2016-11-25T10:54:32.764Z,30.5
2016-11-25T10:55:35.728Z,30.4
2016-11-25T10:56:32.822Z,30.3
2016-11-25T10:57:32.963Z,30.2
2016-11-25T10:58:35.394Z,30.1
2016-11-25T10:59:33.693Z,30
2016-11-25T11:00:36.526Z,29.9
2016-11-25T11:01:38.745Z,29.8
2016-11-25T11:02:38.985Z,29.8
2016-11-25T11:03:37.593Z,29.7
2016-11-25T11:04:33.958Z,29.7
2016-11-25T11:05:36.116Z,29.6
2016-11-25T11:06:36.336Z,29.6
2016-11-25T11:07:35.875Z,29.5
2016-11-25T11:08:33.570Z,29.5
2016-11-25T11:09:36.537Z,29.5
2016-11-25T11:10:34.044Z,29.4
2016-11-25T11:11:34.312Z,29.4
2016-11-25T11:12:36.075Z,29.3
2016-11-25T11:13:33.705Z,29.3
2016-11-25T11:14:37.319Z,29.2
2016-11-25T11:15:36.249Z,29.2
2016-11-25T11:16:38.200Z,29.1
2016-11-25T11:17:36.437Z,29.1
2016-11-25T11:18:37.553Z,29.1
2016-11-25T11:19:35.374Z,29.1
2016-11-25T11:20:36.927Z,29.1
2016-11-25T11:21:39.728Z,29
2016-11-25T11:22:38.525Z,29
2016-11-25T11:23:34.974Z,29
2016-11-25T11:24:36.223Z,29
2016-11-25T11:25:38.468Z,28.9
2016-11-25T11:26:39.211Z,28.9
2016-11-25T11:27:35.325Z,28.9
2016-11-25T11:28:35.369Z,28.9
2016-11-25T11:29:34.659Z,28.9
2016-11-25T11:30:37.685Z,28.8
2016-11-25T11:31:34.727Z,28.8
2016-11-25T11:32:34.837Z,28.7
2016-11-25T11:33:35.462Z,28.7
2016-11-25T11:34:38.164Z,28.7
2016-11-25T11:35:36.265Z,28.6
2016-11-25T11:36:35.229Z,28.6
2016-11-25T11:37:37.632Z,28.6
2016-11-25T11:38:38.825Z,28.5
2016-11-25T11:39:35.192Z,28.5
2016-11-25T11:40:38.980Z,28.5
2016-11-25T11:41:36.893Z,28.5
2016-11-25T11:42:39.208Z,28.4
2016-11-25T11:43:38.694Z,28.4
2016-11-25T11:44:39.342Z,28.4
2016-11-25T11:45:38.083Z,28.4
2016-11-25T11:46:36.984Z,28.4
2016-11-25T11:47:38.628Z,28.4
2016-11-25T11:48:38.123Z,28.3
2016-11-25T11:49:36.389Z,28.3
2016-11-25T11:50:36.378Z,28.3
2016-11-25T11:51:38.164Z,28.3
2016-11-25T11:52:39.673Z,28.3
2016-11-25T11:53:38.271Z,28.2
2016-11-25T11:54:36.629Z,28.2
2016-11-25T11:55:38.411Z,28.2
2016-11-25T11:56:39.061Z,28.1
2016-11-25T11:57:37.265Z,28.1
2016-11-25T11:58:38.355Z,28.1
2016-11-25T11:59:37.470Z,28.1
2016-11-25T12:00:39.418Z,28.1
2016-11-25T12:01:41.425Z,28.1
2016-11-25T12:02:40.721Z,28.1
2016-11-25T12:03:40.384Z,28
2016-11-25T12:04:37.769Z,28
2016-11-25T12:05:38.934Z,28
2016-11-25T12:06:39.059Z,28
2016-11-25T12:07:38.325Z,28
2016-11-25T12:08:43.085Z,28
2016-11-25T12:09:38.011Z,28
2016-11-25T12:10:37.387Z,28
2016-11-25T12:11:37.466Z,28
2016-11-25T12:12:38.761Z,28
2016-11-25T12:13:41.000Z,28
2016-11-25T12:14:37.711Z,28
2016-11-25T12:15:40.803Z,28
2016-11-25T12:16:40.822Z,28
2016-11-25T12:17:37.047Z,28
2016-11-25T12:18:38.510Z,28
2016-11-25T12:19:38.470Z,28
2016-11-25T12:20:37.176Z,28
2016-11-25T12:21:40.470Z,28
2016-11-25T12:22:39.767Z,28
2016-11-25T12:23:39.805Z,28
2016-11-25T12:24:37.951Z,28
2016-11-25T12:25:40.422Z,28
2016-11-25T12:26:37.550Z,28.2
2016-11-25T12:27:40.634Z,28.4
2016-11-25T12:28:39.892Z,28.4
2016-11-25T12:29:40.049Z,28.6
2016-11-25T12:30:40.682Z,28.8
2016-11-25T12:31:38.878Z,28.7
2016-11-25T12:32:40.673Z,28.7
2016-11-25T12:33:40.132Z,28.8
2016-11-25T12:34:40.763Z,28.8
2016-11-25T12:35:37.859Z,28.8
2016-11-25T12:36:40.393Z,28.8
2016-11-25T12:37:37.870Z,28.9
2016-11-25T12:38:38.020Z,28.9
2016-11-25T12:39:40.410Z,29
2016-11-25T12:40:40.404Z,29
2016-11-25T12:41:40.499Z,29.1
2016-11-25T12:42:38.111Z,29.3
2016-11-25T12:43:38.075Z,29.4
2016-11-25T12:44:40.634Z,29.4
2016-11-25T12:45:38.147Z,29.4
2016-11-25T12:46:38.161Z,29.5
2016-11-25T12:47:40.677Z,29.5
2016-11-25T12:48:39.756Z,29.5
2016-11-25T12:49:38.394Z,29.5
2016-11-25T12:50:40.833Z,29.6
2016-11-25T12:51:38.445Z,29.6
2016-11-25T12:52:41.720Z,29.6
2016-11-25T12:53:41.119Z,29.7
2016-11-25T12:54:39.961Z,29.7
2016-11-25T12:55:38.801Z,29.7
2016-11-25T12:56:42.010Z,29.8
2016-11-25T12:57:41.337Z,29.8
2016-11-25T12:58:38.901Z,29.9
2016-11-25T12:59:42.133Z,29.9
2016-11-25T13:00:41.557Z,30
2016-11-25T13:01:39.198Z,30
2016-11-25T13:02:39.258Z,30
2016-11-25T13:03:39.193Z,30.1
2016-11-25T13:04:39.988Z,30.2
2016-11-25T13:05:42.296Z,30.2
2016-11-25T13:06:39.339Z,30.2
2016-11-25T13:07:40.858Z,30.2
2016-11-25T13:08:42.498Z,30.3
2016-11-25T13:09:41.995Z,30.4
2016-11-25T13:10:43.290Z,30.5
2016-11-25T13:11:42.743Z,30.5
2016-11-25T13:12:42.212Z,30.6
2016-11-25T13:13:42.253Z,30.6
2016-11-25T13:14:42.186Z,30.6
2016-11-25T13:15:42.238Z,30.6
2016-11-25T13:16:42.343Z,30.6
2016-11-25T13:17:40.010Z,30.6
2016-11-25T13:18:45.552Z,30.7
2016-11-25T13:19:40.750Z,30.7
2016-11-25T13:20:42.753Z,30.7
2016-11-25T13:21:42.723Z,30.7
2016-11-25T13:22:43.465Z,30.7